LPPT/LIS METAR and TAF weather

Enter ICAO airport designator
Station Type Date Time Source
LPPT METAR 2021/06/25 04:30 UTC NOAA

LPPT 250430Z 31006KT CAVOK 23/09 Q1016


Station Type Date Time Source
LPPT Decoded METAR 2021/06/25 04:30 UTC NOAA

Lisboa / Portela, Portugal (LPPT) 38-46N 009-08W 123M
Jun 25, 2021 - 12:30 AM EDT / 2021.06.25 0430 UTC
Wind: from the NW (310 degrees) at 7 MPH (6 KT):0
Visibility: greater than 7 mile(s):0
Temperature: 73 F (23 C)
Dew Point: 48 F (9 C)
Relative Humidity: 40%
Pressure (altimeter): 30.00 in. Hg (1016 hPa)
ob: LPPT 250430Z 31006KT CAVOK 23/09 Q1016
cycle: 4

Station Type Date Time Source
LPPT TAF 2021/06/24 18:18 UTC NOAA

TAF LPPT 241700Z 2418/2524 31012KT CAVOK
BECMG 2422/2424 34007KT
BECMG 2504/2506 VRB05KT
BECMG 2512/2514 22010KT
BECMG 2515/2517 31013KT
BECMG 2521/2523 34007KT

Example: see airport list